Time;durP1;ratioP1;P1;durP2;ratioP2;P2;SDS_P1;SDS_P2;PMS_P1;PMS_P2;Temp;Humidity;BMP_temperature;BMP_pressure;BME280_temperature;BME280_humidity;BME280_pressure;Samples;Min_cycle;Max_cycle;Signal;HPM_P1;HPM_P2
2022/03/19 00:00:35;;;;;;;2.30;0.97;;;5.30;99.90;;;;;;4954832;29;20461;-83
2022/03/19 00:03:02;;;;;;;3.47;1.93;;;5.30;99.90;;;;;;4954766;29;20482;-84
2022/03/19 00:05:30;;;;;;;2.40;2.20;;;5.30;99.90;;;;;;4956283;28;20513;-84
2022/03/19 00:07:59;;;;;;;0.87;0.87;;;5.30;99.90;;;;;;4958982;29;20470;-83
2022/03/19 00:10:26;;;;;;;1.70;1.63;;;5.30;99.90;;;;;;4959025;29;20539;-84
2022/03/19 00:12:54;;;;;;;1.60;1.50;;;5.20;99.90;;;;;;4958664;29;20968;-84
2022/03/19 00:15:21;;;;;;;1.13;1.00;;;5.20;99.90;;;;;;4959200;29;20561;-83
2022/03/19 00:17:51;;;;;;;3.13;1.20;;;5.20;99.90;;;;;;4958626;29;20462;-83
2022/03/19 00:20:18;;;;;;;2.70;1.20;;;5.20;99.90;;;;;;4958908;29;20434;-82
2022/03/19 00:22:47;;;;;;;5.07;1.87;;;5.20;99.90;;;;;;4958442;29;20481;-84
2022/03/19 00:25:13;;;;;;;1.67;1.67;;;5.20;99.90;;;;;;4958719;29;20801;-85
2022/03/19 00:27:41;;;;;;;1.63;1.53;;;5.10;99.90;;;;;;4958897;29;20457;-84
2022/03/19 00:30:09;;;;;;;0.33;0.33;;;5.10;99.90;;;;;;4958643;29;20458;-84
2022/03/19 00:32:35;;;;;;;1.93;1.73;;;5.10;99.90;;;;;;4958310;29;20878;-84
2022/03/19 00:35:02;;;;;;;3.03;0.60;;;5.10;99.90;;;;;;4958617;29;20449;-83
2022/03/19 00:37:40;;;;;;;1.57;1.23;;;5.10;99.90;;;;;;4958442;29;20446;-82
2022/03/19 00:40:10;;;;;;;0.97;0.97;;;5.10;99.90;;;;;;4958191;29;20902;-82
2022/03/19 00:42:37;;;;;;;1.60;0.50;;;5.10;99.90;;;;;;4958098;29;21006;-84
2022/03/19 00:45:04;;;;;;;2.23;1.03;;;5.10;99.90;;;;;;4958370;29;20454;-84
2022/03/19 00:47:31;;;;;;;2.80;1.87;;;5.10;99.90;;;;;;4958082;29;20445;-82
2022/03/19 00:49:58;;;;;;;0.97;0.97;;;5.00;99.90;;;;;;4957855;29;20490;-85
2022/03/19 00:52:24;;;;;;;2.77;2.20;;;5.00;99.90;;;;;;4958287;29;20473;-85
2022/03/19 00:54:51;;;;;;;1.17;1.10;;;5.00;99.90;;;;;;4958239;29;20461;-82
2022/03/19 00:57:19;;;;;;;2.03;1.93;;;4.90;99.90;;;;;;4957901;29;20438;-83
2022/03/19 00:59:46;;;;;;;0.93;0.93;;;4.90;99.90;;;;;;4957853;29;20485;-84
2022/03/19 01:02:13;;;;;;;5.93;2.60;;;5.00;99.90;;;;;;4957898;29;20438;-83
2022/03/19 01:04:41;;;;;;;4.10;1.40;;;4.90;99.90;;;;;;4957798;29;20953;-83
2022/03/19 01:07:08;;;;;;;0.60;0.60;;;4.90;99.90;;;;;;4957803;29;20797;-82
2022/03/19 01:09:35;;;;;;;1.20;1.10;;;4.90;99.90;;;;;;4957949;29;20473;-83
2022/03/19 01:12:02;;;;;;;1.03;1.03;;;4.90;99.90;;;;;;4957815;29;20456;-82
2022/03/19 01:14:30;;;;;;;1.23;1.23;;;4.90;99.90;;;;;;4957866;29;20453;-83
2022/03/19 01:16:56;;;;;;;0.80;0.80;;;4.90;99.90;;;;;;4956652;28;20486;-84
2022/03/19 01:22:04;;;;;;;3.33;1.70;;;4.90;99.90;;;;;;4956575;29;20446;-84
2022/03/19 01:24:31;;;;;;;0.90;0.90;;;4.90;99.90;;;;;;4958390;29;20829;-84
2022/03/19 01:26:58;;;;;;;7.03;2.77;;;4.80;99.90;;;;;;4957682;29;20446;-85
2022/03/19 01:29:24;;;;;;;0.80;0.80;;;4.80;99.90;;;;;;4957246;29;20849;-84
2022/03/19 01:31:52;;;;;;;1.80;1.27;;;4.80;99.90;;;;;;4957620;29;20450;-82
2022/03/19 01:34:19;;;;;;;0.70;0.70;;;4.80;99.90;;;;;;4957519;29;20482;-84
2022/03/19 01:36:46;;;;;;;2.47;2.20;;;4.80;99.90;;;;;;4957286;29;20442;-85
2022/03/19 01:39:13;;;;;;;1.87;1.77;;;4.80;99.90;;;;;;4957383;29;20474;-84
2022/03/19 01:41:41;;;;;;;1.53;1.53;;;4.70;99.90;;;;;;4957128;29;20442;-84
2022/03/19 01:44:08;;;;;;;1.03;1.03;;;4.70;99.90;;;;;;4957330;29;20450;-84
2022/03/19 01:47:01;;;;;;;1.00;1.00;;;4.70;99.90;;;;;;4957316;29;20454;-84
2022/03/19 01:49:29;;;;;;;1.20;1.20;;;4.70;99.90;;;;;;4956840;29;20509;-85
2022/03/19 01:51:56;;;;;;;3.73;3.53;;;4.70;99.90;;;;;;4956915;29;20460;-84
2022/03/19 01:54:25;;;;;;;1.17;1.17;;;4.60;99.90;;;;;;4957165;29;20486;-84
2022/03/19 01:56:54;;;;;;;2.80;1.03;;;4.70;99.90;;;;;;4957135;29;20505;-85
2022/03/19 01:59:22;;;;;;;0.40;0.40;;;4.70;99.90;;;;;;4956728;29;21001;-84
2022/03/19 02:01:50;;;;;;;2.00;2.00;;;4.60;99.90;;;;;;4957491;29;20454;-84
2022/03/19 02:04:19;;;;;;;0.97;0.97;;;4.60;99.90;;;;;;4956979;29;20445;-84
2022/03/19 02:06:46;;;;;;;3.03;2.90;;;4.60;99.90;;;;;;4956949;29;20461;-84
2022/03/19 02:09:13;;;;;;;3.10;1.90;;;4.60;99.90;;;;;;4956581;29;21080;-84
2022/03/19 02:11:41;;;;;;;0.70;0.70;;;4.50;99.90;;;;;;4956896;29;20450;-84
2022/03/19 02:14:08;;;;;;;2.83;2.73;;;4.60;99.90;;;;;;4956307;29;20838;-84
2022/03/19 02:16:35;;;;;;;2.33;1.27;;;4.50;99.90;;;;;;4956709;29;20461;-84
2022/03/19 02:19:02;;;;;;;2.87;1.07;;;4.50;99.90;;;;;;4956593;29;20477;-84
2022/03/19 02:21:40;;;;;;;0.70;0.70;;;4.50;99.90;;;;;;4956600;29;20793;-84
2022/03/19 02:26:52;;;;;;;0.63;0.63;;;4.50;99.90;;;;;;4956689;29;20443;-84
2022/03/19 02:29:20;;;;;;;2.20;2.00;;;4.50;99.90;;;;;;4956251;28;20510;-84
2022/03/19 02:31:50;;;;;;;1.33;1.33;;;4.50;99.90;;;;;;4956465;29;20540;-84
2022/03/19 02:34:17;;;;;;;0.77;0.77;;;4.40;99.90;;;;;;4956327;29;20494;-84
2022/03/19 02:36:44;;;;;;;1.40;1.20;;;4.40;99.90;;;;;;4956079;29;20942;-84
2022/03/19 02:39:16;;;;;;;0.43;0.43;;;4.50;99.90;;;;;;4956267;29;20481;-84
2022/03/19 02:41:43;;;;;;;1.27;0.57;;;4.50;99.90;;;;;;4956393;29;20447;-84
2022/03/19 02:44:11;;;;;;;0.93;0.77;;;4.40;99.90;;;;;;4956259;29;20965;-84
2022/03/19 02:46:39;;;;;;;1.37;1.30;;;4.40;99.90;;;;;;4956197;29;20456;-84
2022/03/19 02:49:06;;;;;;;0.83;0.83;;;4.40;99.90;;;;;;4955716;29;20505;-84
2022/03/19 02:51:36;;;;;;;0.80;0.80;;;4.40;99.90;;;;;;4955950;29;20465;-84
2022/03/19 02:54:04;;;;;;;4.40;2.70;;;4.40;99.90;;;;;;4955953;29;20486;-84
2022/03/19 02:56:33;;;;;;;0.67;0.67;;;4.30;99.90;;;;;;4956041;29;20457;-84
2022/03/19 02:59:06;;;;;;;0.30;0.30;;;4.40;99.90;;;;;;4955957;29;20469;-83
2022/03/19 03:01:33;;;;;;;1.07;1.03;;;4.40;99.90;;;;;;4956095;29;20427;-84
2022/03/19 03:04:00;;;;;;;0.93;0.93;;;4.30;99.90;;;;;;4955939;29;20529;-84
2022/03/19 03:06:28;;;;;;;3.03;1.40;;;4.30;99.90;;;;;;4955864;29;20450;-84
2022/03/19 03:08:54;;;;;;;1.27;0.90;;;4.30;99.90;;;;;;4955760;29;20474;-83
2022/03/19 03:11:21;;;;;;;2.40;2.07;;;4.20;99.90;;;;;;4955870;29;20922;-84
2022/03/19 03:13:49;;;;;;;1.70;1.70;;;4.20;99.90;;;;;;4955434;29;20482;-84
2022/03/19 03:16:16;;;;;;;0.43;0.43;;;4.20;99.90;;;;;;4955378;29;20457;-84
2022/03/19 03:18:43;;;;;;;0.83;0.83;;;4.30;99.90;;;;;;4955498;29;20485;-84
2022/03/19 03:21:10;;;;;;;1.63;1.63;;;4.20;99.90;;;;;;4955314;29;20454;-84
2022/03/19 03:23:37;;;;;;;0.80;0.80;;;4.30;99.90;;;;;;4955574;29;20457;-84
2022/03/19 03:26:03;;;;;;;2.37;1.80;;;4.20;99.90;;;;;;4955595;29;20457;-84
2022/03/19 03:28:30;;;;;;;0.40;0.37;;;4.30;99.90;;;;;;4955461;29;20477;-84
2022/03/19 03:30:58;;;;;;;1.23;0.93;;;4.20;99.90;;;;;;4955530;29;20458;-84
2022/03/19 03:33:25;;;;;;;2.20;1.03;;;4.20;99.90;;;;;;4955411;29;20490;-83
2022/03/19 03:35:52;;;;;;;1.67;1.57;;;4.20;99.90;;;;;;4955431;29;20458;-84
2022/03/19 03:38:19;;;;;;;3.57;2.30;;;4.20;99.90;;;;;;4955032;29;21016;-84
2022/03/19 03:40:46;;;;;;;0.87;0.87;;;4.20;99.90;;;;;;4954572;28;20469;-84
2022/03/19 03:43:13;;;;;;;1.30;1.30;;;4.20;99.90;;;;;;4955895;29;20453;-83
2022/03/19 03:45:40;;;;;;;1.47;1.37;;;4.20;99.90;;;;;;4955058;29;20442;-84
2022/03/19 03:48:09;;;;;;;1.00;1.00;;;4.20;99.90;;;;;;4954873;29;20486;-83
2022/03/19 03:50:36;;;;;;;2.20;2.20;;;4.10;99.90;;;;;;4955324;29;20505;-83
2022/03/19 03:53:04;;;;;;;0.60;0.60;;;4.10;99.90;;;;;;4955192;29;20538;-84
2022/03/19 03:55:31;;;;;;;1.17;1.17;;;4.10;99.90;;;;;;4955217;29;20458;-84
2022/03/19 03:57:58;;;;;;;1.77;1.67;;;4.10;99.90;;;;;;4954872;29;21010;-84
2022/03/19 04:00:25;;;;;;;1.60;1.50;;;4.10;99.90;;;;;;4955153;29;20466;-83
2022/03/19 04:02:51;;;;;;;0.77;0.77;;;4.20;99.90;;;;;;4955157;29;20450;-84
2022/03/19 04:05:20;;;;;;;1.40;1.33;;;4.10;99.90;;;;;;4955166;29;20467;-83
2022/03/19 04:07:46;;;;;;;1.40;1.30;;;4.10;99.90;;;;;;4955060;29;20446;-84
2022/03/19 04:10:13;;;;;;;0.60;0.60;;;4.00;99.90;;;;;;4955135;29;20490;-84
2022/03/19 04:12:40;;;;;;;1.60;1.60;;;4.00;99.90;;;;;;4954802;29;20450;-84
2022/03/19 04:15:08;;;;;;;2.03;1.93;;;3.90;99.90;;;;;;4955016;29;20486;-84
2022/03/19 04:17:35;;;;;;;3.37;3.17;;;3.90;99.90;;;;;;4954944;29;20462;-84
2022/03/19 04:20:03;;;;;;;1.00;1.00;;;3.90;99.90;;;;;;4955021;29;20454;-84
2022/03/19 04:22:36;;;;;;;0.93;0.93;;;3.90;99.90;;;;;;4955012;29;20890;-84
2022/03/19 04:25:03;;;;;;;2.20;1.37;;;3.90;99.90;;;;;;4954941;29;20451;-84
2022/03/19 04:27:30;;;;;;;0.70;0.70;;;3.90;99.90;;;;;;4954862;29;20450;-84
2022/03/19 04:29:57;;;;;;;2.40;0.70;;;4.00;99.90;;;;;;4954788;29;20435;-84
2022/03/19 04:32:24;;;;;;;0.53;0.53;;;3.90;99.90;;;;;;4954908;29;20926;-84
2022/03/19 04:34:51;;;;;;;5.20;1.47;;;3.90;99.90;;;;;;4954836;29;20481;-84
2022/03/19 04:37:18;;;;;;;1.97;1.57;;;4.00;99.90;;;;;;4954565;29;20450;-84
2022/03/19 04:39:46;;;;;;;1.47;0.83;;;3.90;99.90;;;;;;4954750;29;20481;-84
2022/03/19 04:42:12;;;;;;;1.03;1.03;;;3.90;99.90;;;;;;4954619;29;20443;-84
2022/03/19 04:44:39;;;;;;;0.63;0.63;;;3.90;99.90;;;;;;4954813;29;20490;-83
2022/03/19 04:47:07;;;;;;;0.70;0.60;;;3.90;99.90;;;;;;4954814;29;20456;-84
2022/03/19 04:49:34;;;;;;;1.17;1.17;;;3.80;99.90;;;;;;4954360;29;20493;-84
2022/03/19 04:52:00;;;;;;;1.90;1.80;;;3.80;99.90;;;;;;4956685;28;20458;-84
2022/03/19 04:54:27;;;;;;;0.70;0.70;;;3.80;99.90;;;;;;4957905;29;20899;-84
2022/03/19 04:56:55;;;;;;;0.60;0.60;;;3.70;99.90;;;;;;4958230;29;20458;-84
2022/03/19 04:59:22;;;;;;;1.77;1.63;;;3.70;99.90;;;;;;4957771;29;20981;-84
2022/03/19 05:01:49;;;;;;;0.50;0.50;;;3.70;99.90;;;;;;4957854;29;20445;-84
2022/03/19 05:04:15;;;;;;;0.97;0.60;;;3.60;99.90;;;;;;4958077;29;20450;-84
2022/03/19 05:06:42;;;;;;;1.10;0.77;;;3.60;99.90;;;;;;4958048;29;20477;-84
2022/03/19 05:11:53;;;;;;;0.60;0.50;;;3.60;99.90;;;;;;4958052;29;20413;-84
2022/03/19 05:14:21;;;;;;;1.30;1.23;;;3.50;99.90;;;;;;4957780;29;20517;-83
2022/03/19 05:16:47;;;;;;;0.70;0.70;;;3.50;99.90;;;;;;4957549;29;20454;-84
2022/03/19 05:19:14;;;;;;;0.60;0.60;;;3.50;99.90;;;;;;4957673;29;20521;-84
2022/03/19 05:21:41;;;;;;;1.73;1.63;;;3.50;99.90;;;;;;4957775;29;20454;-84
2022/03/19 05:24:08;;;;;;;1.10;1.00;;;3.60;99.90;;;;;;4957485;29;20811;-84
2022/03/19 05:26:36;;;;;;;1.63;1.33;;;3.50;99.90;;;;;;4957687;29;20480;-84
2022/03/19 05:29:03;;;;;;;1.33;1.23;;;3.40;99.90;;;;;;4957229;29;20986;-84
2022/03/19 05:31:31;;;;;;;2.03;1.80;;;3.40;99.90;;;;;;4957573;29;20457;-83
2022/03/19 05:36:43;;;;;;;2.20;0.90;;;3.30;99.90;;;;;;4957566;29;20413;-84
2022/03/19 05:39:10;;;;;;;1.43;1.33;;;3.20;99.90;;;;;;4957607;29;20514;-83
2022/03/19 05:41:36;;;;;;;1.37;1.27;;;3.20;99.90;;;;;;4957137;29;20942;-84
2022/03/19 05:44:03;;;;;;;0.97;0.93;;;3.20;99.90;;;;;;4957046;29;20505;-84
2022/03/19 05:46:31;;;;;;;0.73;0.73;;;3.20;99.90;;;;;;4957011;29;20443;-84
2022/03/19 05:48:58;;;;;;;0.53;0.53;;;3.20;99.90;;;;;;4956732;29;20489;-83
2022/03/19 05:51:25;;;;;;;1.47;1.43;;;3.20;99.90;;;;;;4957188;29;20462;-83
2022/03/19 05:53:51;;;;;;;1.17;1.13;;;3.30;99.90;;;;;;4957125;29;20492;-84
2022/03/19 05:56:18;;;;;;;0.63;0.63;;;3.30;99.90;;;;;;4957193;29;20454;-84
2022/03/19 05:58:45;;;;;;;0.60;0.60;;;3.30;99.90;;;;;;4957019;29;20482;-84
2022/03/19 06:01:12;;;;;;;0.53;0.53;;;3.30;99.90;;;;;;4957028;29;20454;-84
2022/03/19 06:03:40;;;;;;;0.60;0.60;;;3.30;99.90;;;;;;4956487;28;20446;-84
2022/03/19 06:06:06;;;;;;;2.20;1.80;;;3.40;99.90;;;;;;4956909;29;20453;-84
2022/03/19 06:08:33;;;;;;;1.03;0.83;;;3.50;99.90;;;;;;4956836;29;21012;-84
2022/03/19 06:11:00;;;;;;;1.13;0.50;;;3.50;99.90;;;;;;4956574;29;20446;-84
2022/03/19 06:13:27;;;;;;;0.67;0.67;;;3.50;99.90;;;;;;4956521;29;20957;-84
2022/03/19 06:15:54;;;;;;;2.67;2.20;;;3.60;99.90;;;;;;4956738;29;20537;-84
2022/03/19 06:18:20;;;;;;;2.83;1.03;;;3.70;99.90;;;;;;4956702;29;20474;-84
2022/03/19 06:20:48;;;;;;;1.67;1.57;;;3.80;99.90;;;;;;4956654;29;20454;-84
2022/03/19 06:23:15;;;;;;;2.73;0.60;;;4.00;99.90;;;;;;4956321;29;20985;-84
2022/03/19 06:25:42;;;;;;;1.67;0.90;;;4.40;99.90;;;;;;4956610;29;20458;-84
2022/03/19 06:28:09;;;;;;;0.83;0.83;;;4.80;99.90;;;;;;4956281;29;20454;-84
2022/03/19 06:30:37;;;;;;;0.73;0.73;;;5.20;99.90;;;;;;4956453;29;20456;-84
2022/03/19 06:33:04;;;;;;;0.47;0.47;;;5.50;99.90;;;;;;4956449;29;20458;-84
2022/03/19 06:38:19;;;;;;;0.60;0.60;;;5.60;99.90;;;;;;4956130;29;20452;-84
2022/03/19 06:40:46;;;;;;;1.07;1.07;;;5.50;99.90;;;;;;4955991;29;20454;-84
2022/03/19 06:43:12;;;;;;;5.10;1.60;;;5.30;99.90;;;;;;4956320;29;20476;-83
2022/03/19 06:45:39;;;;;;;1.80;1.70;;;5.20;99.90;;;;;;4956209;29;20447;-84
2022/03/19 06:48:07;;;;;;;1.33;1.33;;;5.20;99.90;;;;;;4955846;29;20829;-84
2022/03/19 06:50:33;;;;;;;1.80;1.70;;;5.20;99.90;;;;;;4956203;29;20441;-84
2022/03/19 06:53:00;;;;;;;0.90;0.90;;;5.20;99.90;;;;;;4955874;29;20430;-84
2022/03/19 06:55:28;;;;;;;1.27;1.17;;;5.20;99.90;;;;;;4955965;29;20490;-84
2022/03/19 06:57:56;;;;;;;0.70;0.50;;;5.20;99.90;;;;;;4955732;29;20459;-84
2022/03/19 07:00:23;;;;;;;1.17;1.07;;;5.30;99.90;;;;;;4955972;29;20458;-84
2022/03/19 07:02:51;;;;;;;1.30;1.30;;;5.30;99.90;;;;;;4955754;29;20435;-84
2022/03/19 07:05:21;;;;;;;0.50;0.50;;;5.40;99.90;;;;;;4955874;29;20454;-84
2022/03/19 07:07:48;;;;;;;0.43;0.43;;;5.40;99.90;;;;;;4955795;29;20457;-84
2022/03/19 07:10:16;;;;;;;1.23;1.03;;;5.50;99.90;;;;;;4955857;29;20535;-84
2022/03/19 07:12:44;;;;;;;0.60;0.60;;;5.50;99.90;;;;;;4955816;29;20458;-84
2022/03/19 07:15:13;;;;;;;2.40;2.23;;;5.50;99.90;;;;;;4954858;28;20572;-84
2022/03/19 07:17:40;;;;;;;1.13;1.03;;;5.60;99.90;;;;;;4955859;29;20446;-84
2022/03/19 07:20:08;;;;;;;0.80;0.80;;;5.70;99.90;;;;;;4955437;29;20946;-84
2022/03/19 07:22:48;;;;;;;0.70;0.70;;;5.80;99.90;;;;;;4955350;29;20461;-84
2022/03/19 07:25:15;;;;;;;0.50;0.50;;;5.80;99.90;;;;;;4955348;29;20804;-84
2022/03/19 07:27:44;;;;;;;0.70;0.70;;;5.80;99.90;;;;;;4955768;29;20505;-84
2022/03/19 07:30:12;;;;;;;1.37;1.27;;;5.80;99.90;;;;;;4955557;29;20447;-84
2022/03/19 07:32:41;;;;;;;1.33;1.23;;;5.90;99.90;;;;;;4955542;29;20469;-83
2022/03/19 07:35:08;;;;;;;1.00;0.90;;;6.00;99.90;;;;;;4955454;29;20508;-84
2022/03/19 07:37:37;;;;;;;1.33;1.33;;;6.10;99.90;;;;;;4955413;29;20450;-84
2022/03/19 07:40:05;;;;;;;2.20;1.27;;;6.20;99.90;;;;;;4955462;29;20458;-83
2022/03/19 07:42:31;;;;;;;3.57;1.17;;;6.30;99.90;;;;;;4955351;29;20529;-84
2022/03/19 07:45:00;;;;;;;2.67;2.47;;;6.30;99.90;;;;;;4955089;29;20938;-84
2022/03/19 07:47:26;;;;;;;0.90;0.90;;;6.40;99.90;;;;;;4955359;29;20211;-84
2022/03/19 07:49:53;;;;;;;0.87;0.77;;;6.40;99.90;;;;;;4954769;29;20489;-84
2022/03/19 07:52:20;;;;;;;1.83;1.70;;;6.40;99.90;;;;;;4954994;29;20443;-84
2022/03/19 07:54:50;;;;;;;0.40;0.40;;;6.60;99.90;;;;;;4955080;29;20496;-84
2022/03/19 07:57:16;;;;;;;0.40;0.40;;;6.60;99.90;;;;;;4955247;29;20452;-84
2022/03/19 07:59:43;;;;;;;2.10;1.53;;;6.70;99.90;;;;;;4955143;29;20474;-83
2022/03/19 08:02:11;;;;;;;2.53;2.43;;;6.70;99.90;;;;;;4955227;29;20442;-83
2022/03/19 08:04:41;;;;;;;3.13;0.90;;;6.80;99.90;;;;;;4955152;29;20457;-84
2022/03/19 08:07:08;;;;;;;2.70;1.47;;;6.80;99.90;;;;;;4955447;29;20554;-83
2022/03/19 08:09:36;;;;;;;0.87;0.87;;;6.80;99.90;;;;;;4954897;29;20467;-84
2022/03/19 08:12:03;;;;;;;2.00;1.77;;;6.90;99.90;;;;;;4955336;29;20509;-85
2022/03/19 08:14:32;;;;;;;0.70;0.70;;;7.10;99.90;;;;;;4955108;29;20482;-85
2022/03/19 08:16:59;;;;;;;1.60;0.87;;;7.20;99.90;;;;;;4955389;29;20801;-83
2022/03/19 08:19:28;;;;;;;1.20;1.00;;;7.20;99.90;;;;;;4955090;29;20502;-84
2022/03/19 08:21:55;;;;;;;0.50;0.50;;;7.30;99.90;;;;;;4955313;29;20462;-84
2022/03/19 08:24:23;;;;;;;3.13;1.23;;;7.40;99.90;;;;;;4955211;29;20849;-84
2022/03/19 08:26:52;;;;;;;1.00;1.00;;;7.50;99.90;;;;;;4956540;28;20501;-84
2022/03/19 08:29:19;;;;;;;0.73;0.73;;;7.60;99.90;;;;;;4959039;29;20905;-84
2022/03/19 08:31:46;;;;;;;1.63;0.53;;;7.80;99.90;;;;;;4958927;29;20469;-84
2022/03/19 08:34:14;;;;;;;1.27;1.27;;;7.90;99.90;;;;;;4958880;29;20415;-84
2022/03/19 08:36:43;;;;;;;1.23;0.90;;;8.00;99.90;;;;;;4958377;29;20953;-85
2022/03/19 08:42:09;;;;;;;5.10;2.00;;;8.20;99.90;;;;;;4899654;29;20436;-84
2022/03/19 08:44:35;;;;;;;1.33;1.23;;;8.20;99.90;;;;;;4899249;29;20452;-83
2022/03/19 08:47:03;;;;;;;1.53;1.43;;;8.30;99.90;;;;;;4925078;29;20446;-83
2022/03/19 08:49:29;;;;;;;3.43;1.47;;;8.40;99.90;;;;;;4957876;29;20482;-83
2022/03/19 08:51:58;;;;;;;1.90;1.80;;;8.60;99.90;;;;;;4959118;29;20446;-83
2022/03/19 08:54:24;;;;;;;1.57;1.47;;;8.80;99.90;;;;;;4958174;29;20461;-81
2022/03/19 08:56:52;;;;;;;0.87;0.80;;;9.00;99.90;;;;;;4958118;29;20458;-81
2022/03/19 08:59:20;;;;;;;3.30;2.33;;;9.30;99.40;;;;;;4958558;29;20522;-82
2022/03/19 09:01:48;;;;;;;0.70;0.60;;;9.50;98.70;;;;;;4958208;29;20454;-81
2022/03/19 09:04:16;;;;;;;1.80;1.40;;;9.60;97.30;;;;;;4958169;29;20454;-82
2022/03/19 09:06:42;;;;;;;8.43;2.47;;;9.90;96.40;;;;;;4957724;29;20835;-81
2022/03/19 09:09:13;;;;;;;1.43;1.23;;;10.20;93.90;;;;;;4958051;29;20470;-81
2022/03/19 09:11:40;;;;;;;0.80;0.80;;;10.70;92.30;;;;;;4958048;29;20466;-82
2022/03/19 09:14:08;;;;;;;2.83;1.87;;;11.40;89.60;;;;;;4957936;29;20473;-83
2022/03/19 09:16:36;;;;;;;1.87;1.77;;;12.30;86.00;;;;;;4957573;29;20488;-83
2022/03/19 09:19:03;;;;;;;2.07;1.77;;;13.40;83.40;;;;;;4957688;29;20458;-83
2022/03/19 09:21:30;;;;;;;6.30;1.60;;;14.60;75.60;;;;;;4957528;29;20439;-83
2022/03/19 09:23:58;;;;;;;3.83;1.53;;;15.50;66.70;;;;;;4958575;29;20430;-84
2022/03/19 09:26:26;;;;;;;2.30;1.37;;;15.80;61.50;;;;;;4957683;29;20442;-83
2022/03/19 09:28:53;;;;;;;4.47;1.47;;;15.90;59.80;;;;;;4957272;29;20474;-83
2022/03/19 09:31:20;;;;;;;2.73;1.27;;;16.20;57.10;;;;;;4957718;29;20439;-84
2022/03/19 09:33:48;;;;;;;10.23;2.87;;;16.20;55.90;;;;;;4957741;29;20481;-83
2022/03/19 09:36:15;;;;;;;4.70;2.77;;;16.40;55.50;;;;;;4957119;29;20486;-83
2022/03/19 09:38:42;;;;;;;5.30;2.77;;;16.80;55.70;;;;;;4956554;28;20478;-84
2022/03/19 09:41:09;;;;;;;1.60;1.37;;;17.30;53.80;;;;;;4957093;29;21013;-84
2022/03/19 09:43:37;;;;;;;4.00;2.37;;;16.90;51.90;;;;;;4957093;29;20458;-83
2022/03/19 09:46:07;;;;;;;2.70;2.43;;;16.80;52.90;;;;;;4957327;29;20450;-84
2022/03/19 09:48:34;;;;;;;5.27;2.53;;;17.00;50.70;;;;;;4956869;29;20549;-84
2022/03/19 09:51:01;;;;;;;5.57;2.20;;;17.10;50.70;;;;;;4957235;29;20472;-84
2022/03/19 09:53:28;;;;;;;5.00;2.30;;;16.90;50.60;;;;;;4957227;29;20450;-84
2022/03/19 09:55:57;;;;;;;5.47;2.80;;;17.40;50.20;;;;;;4956832;29;20538;-84
2022/03/19 09:58:24;;;;;;;8.97;3.13;;;17.00;50.90;;;;;;4956773;29;20485;-84
2022/03/19 10:00:52;;;;;;;5.07;2.00;;;17.20;50.40;;;;;;4957073;29;20454;-84
2022/03/19 10:03:22;;;;;;;6.90;3.10;;;17.20;50.00;;;;;;4956975;29;20450;-84
2022/03/19 10:08:39;;;;;;;5.00;3.47;;;16.20;49.80;;;;;;4956748;29;20450;-84
2022/03/19 10:11:07;;;;;;;2.20;1.20;;;16.30;50.70;;;;;;4956978;29;20449;-84
2022/03/19 10:13:37;;;;;;;3.43;1.70;;;16.30;49.50;;;;;;4956682;29;20454;-84
2022/03/19 10:16:06;;;;;;;2.67;1.80;;;16.20;50.00;;;;;;4957091;29;20493;-84
2022/03/19 10:18:33;;;;;;;5.63;1.73;;;15.70;50.90;;;;;;4956797;29;20470;-84
2022/03/19 10:21:02;;;;;;;2.77;1.70;;;15.70;51.70;;;;;;4956685;29;20450;-84
2022/03/19 10:23:33;;;;;;;4.97;2.57;;;15.80;52.20;;;;;;4956653;29;20453;-84
2022/03/19 10:26:00;;;;;;;3.23;1.63;;;15.90;50.50;;;;;;4957147;29;20482;-84
2022/03/19 10:28:30;;;;;;;10.37;1.43;;;16.10;50.00;;;;;;4956544;29;20488;-83
2022/03/19 10:30:57;;;;;;;1.80;1.43;;;16.50;49.50;;;;;;4956510;29;20654;-82
2022/03/19 10:33:27;;;;;;;4.60;2.77;;;16.30;49.70;;;;;;4956541;29;20461;-79
2022/03/19 10:36:06;;;;;;;3.77;2.27;;;16.10;49.50;;;;;;4956077;29;20882;-81
2022/03/19 10:38:42;;;;;;;2.90;1.70;;;15.60;48.80;;;;;;4956064;29;20474;-82
2022/03/19 10:41:09;;;;;;;2.90;1.27;;;15.80;48.90;;;;;;4956412;29;20555;-83
2022/03/19 10:43:36;;;;;;;3.47;1.73;;;16.10;48.60;;;;;;4956260;29;20446;-82
2022/03/19 10:46:04;;;;;;;4.07;2.60;;;16.70;48.70;;;;;;4955923;29;20454;-83
2022/03/19 10:48:32;;;;;;;5.13;1.80;;;17.40;46.80;;;;;;4955838;29;20490;-83
2022/03/19 10:50:59;;;;;;;2.70;2.10;;;17.90;46.80;;;;;;4955712;28;20435;-83
2022/03/19 10:53:28;;;;;;;1.20;1.10;;;17.90;45.70;;;;;;4955767;29;20808;-83
2022/03/19 10:55:56;;;;;;;6.20;2.30;;;17.80;45.80;;;;;;4956290;29;20478;-83
2022/03/19 10:58:27;;;;;;;6.30;2.60;;;17.70;47.90;;;;;;4954322;29;21016;-83
2022/03/19 11:00:54;;;;;;;6.40;1.97;;;18.00;46.50;;;;;;4956034;29;20435;-83
2022/03/19 11:03:27;;;;;;;4.13;2.43;;;18.50;46.00;;;;;;4955937;29;20505;-83
2022/03/19 11:06:03;;;;;;;4.93;2.77;;;18.30;46.10;;;;;;4955985;29;20521;-82
2022/03/19 11:08:31;;;;;;;5.27;2.77;;;17.70;46.90;;;;;;4955751;29;20531;-83
2022/03/19 11:10:59;;;;;;;3.47;1.63;;;16.10;47.80;;;;;;4955864;29;20526;-83
2022/03/19 11:13:33;;;;;;;1.93;1.53;;;15.10;50.30;;;;;;4955756;29;20457;-83
2022/03/19 11:16:03;;;;;;;6.23;2.40;;;14.40;52.10;;;;;;4955373;29;20474;-83
2022/03/19 11:18:30;;;;;;;2.90;2.20;;;13.80;53.70;;;;;;4955644;29;20470;-83
2022/03/19 11:20:59;;;;;;;5.30;2.50;;;13.10;54.80;;;;;;4955402;29;20960;-83
2022/03/19 11:23:47;;;;;;;5.10;2.13;;;12.90;56.50;;;;;;4955512;29;20434;-84
2022/03/19 11:26:34;;;;;;;3.40;3.10;;;12.70;57.40;;;;;;4955384;29;20435;-84
2022/03/19 11:29:02;;;;;;;2.03;1.93;;;12.50;57.60;;;;;;4955514;29;20458;-82
2022/03/19 11:31:30;;;;;;;4.20;1.83;;;12.40;58.80;;;;;;4955236;29;20977;-83
2022/03/19 11:34:01;;;;;;;2.00;1.43;;;12.60;60.00;;;;;;4955507;29;20457;-81
2022/03/19 11:36:29;;;;;;;3.60;2.83;;;12.80;59.30;;;;;;4955107;29;20978;-80
2022/03/19 11:38:56;;;;;;;4.50;1.80;;;12.70;59.00;;;;;;4955057;29;21015;-82
2022/03/19 11:41:25;;;;;;;1.07;0.97;;;12.60;59.70;;;;;;4955366;29;20450;-82
2022/03/19 11:44:18;;;;;;;1.87;1.77;;;12.60;59.80;;;;;;4955041;29;20446;-81
2022/03/19 11:47:00;;;;;;;3.33;0.97;;;12.30;59.00;;;;;;4955416;29;20423;-81
2022/03/19 11:49:50;;;;;;;2.67;2.47;;;11.90;58.90;;;;;;4954931;29;20489;-82
2022/03/19 11:52:19;;;;;;;0.63;0.63;;;11.50;57.80;;;;;;4955276;29;20435;-81
2022/03/19 11:55:06;;;;;;;7.93;1.30;;;11.20;57.10;;;;;;4954977;29;20822;-82
2022/03/19 11:57:50;;;;;;;1.10;0.70;;;11.10;57.80;;;;;;4955114;29;20474;-81
2022/03/19 12:00:18;;;;;;;1.13;0.90;;;11.00;58.10;;;;;;4955226;28;20435;-79
2022/03/19 12:03:05;;;;;;;3.90;0.70;;;10.90;58.50;;;;;;4958530;29;20461;-81
2022/03/19 12:05:33;;;;;;;1.43;1.33;;;10.90;57.90;;;;;;4959182;29;20439;-81
2022/03/19 12:08:08;;;;;;;1.67;1.57;;;10.90;59.10;;;;;;4959011;29;20466;-82
2022/03/19 12:10:54;;;;;;;3.27;1.80;;;10.90;57.90;;;;;;4958993;29;20425;-81
2022/03/19 12:13:38;;;;;;;1.43;1.43;;;11.00;58.30;;;;;;4959174;29;20517;-82
2022/03/19 12:16:08;;;;;;;4.40;1.53;;;11.10;57.70;;;;;;4959389;29;20576;-81
2022/03/19 12:18:43;;;;;;;0.50;0.50;;;11.30;57.50;;;;;;4958995;29;20514;-82
2022/03/19 12:21:17;;;;;;;0.90;0.60;;;11.50;58.10;;;;;;4959836;29;20452;-83
2022/03/19 12:23:52;;;;;;;0.77;0.77;;;11.50;57.70;;;;;;4959244;29;20419;-82
2022/03/19 12:26:23;;;;;;;0.60;0.30;;;11.20;57.90;;;;;;4958762;29;20426;-82
2022/03/19 12:28:59;;;;;;;1.80;0.70;;;11.10;58.90;;;;;;4958893;29;20880;-82
2022/03/19 12:31:31;;;;;;;0.93;0.93;;;11.10;58.60;;;;;;4958840;29;20442;-82
2022/03/19 12:33:57;;;;;;;2.10;1.93;;;11.10;58.80;;;;;;4958826;29;20555;-84
2022/03/19 12:36:25;;;;;;;1.60;1.50;;;11.10;59.10;;;;;;4958704;29;20485;-85
2022/03/19 12:38:53;;;;;;;0.47;0.47;;;11.00;58.30;;;;;;4958408;29;21001;-85
2022/03/19 12:41:31;;;;;;;6.10;1.13;;;10.90;58.70;;;;;;4958763;29;20525;-82
2022/03/19 12:44:00;;;;;;;0.40;0.30;;;10.90;59.50;;;;;;4958457;29;20438;-81
2022/03/19 12:46:28;;;;;;;0.47;0.47;;;10.90;59.40;;;;;;4958591;29;20430;-81
2022/03/19 12:49:03;;;;;;;0.40;0.40;;;11.10;59.60;;;;;;4957878;29;20505;-81
2022/03/19 12:51:30;;;;;;;0.40;0.40;;;11.20;58.60;;;;;;4958502;29;20838;-84
2022/03/19 12:53:59;;;;;;;0.30;0.30;;;11.30;58.50;;;;;;4958154;29;20446;-84
2022/03/19 12:56:27;;;;;;;0.90;0.87;;;11.10;56.70;;;;;;4958314;29;20484;-84
2022/03/19 12:58:56;;;;;;;0.97;0.40;;;10.80;55.60;;;;;;4958185;29;20470;-85
2022/03/19 13:01:26;;;;;;;3.13;1.50;;;10.70;55.80;;;;;;4958111;29;20457;-84
2022/03/19 13:03:55;;;;;;;2.20;1.07;;;10.70;57.70;;;;;;4957882;29;20538;-84
2022/03/19 13:06:29;;;;;;;0.50;0.50;;;10.60;56.00;;;;;;4958134;29;20437;-82
2022/03/19 13:08:58;;;;;;;0.40;0.37;;;10.50;54.60;;;;;;4957661;29;20990;-83
2022/03/19 13:11:26;;;;;;;4.77;0.77;;;10.30;53.60;;;;;;4958021;29;20450;-83
2022/03/19 13:13:53;;;;;;;0.80;0.50;;;10.30;54.70;;;;;;4956413;28;21070;-82
2022/03/19 13:16:28;;;;;;;0.40;0.40;;;10.30;55.60;;;;;;4957893;29;20506;-82
2022/03/19 13:18:59;;;;;;;0.40;0.40;;;10.30;57.30;;;;;;4957877;29;21123;-83